createdAt,value
2018-02-14T00:00:05.496Z,99.99
2018-02-14T00:01:05.212Z,99.99
2018-02-14T00:02:20.151Z,99.99
2018-02-14T00:03:05.491Z,99.99
2018-02-14T00:04:05.505Z,99.99
2018-02-14T00:05:05.509Z,99.99
2018-02-14T00:06:05.535Z,99.99
2018-02-14T00:07:05.279Z,99.99
2018-02-14T00:08:05.294Z,99.99
2018-02-14T00:09:05.546Z,99.99
2018-02-14T00:10:05.571Z,99.99
2018-02-14T00:12:05.594Z,99.99
2018-02-14T00:13:05.599Z,99.99
2018-02-14T00:14:05.628Z,99.99
2018-02-14T00:15:05.731Z,99.99
2018-02-14T00:16:05.626Z,99.99
2018-02-14T00:17:05.390Z,99.99
2018-02-14T00:18:05.648Z,99.99
2018-02-14T00:19:05.672Z,99.99
2018-02-14T00:20:05.669Z,99.99
2018-02-14T00:21:05.693Z,99.99
2018-02-14T00:22:05.456Z,99.99
2018-02-14T00:24:05.766Z,99.99
2018-02-14T00:25:05.729Z,99.99
2018-02-14T00:26:05.753Z,99.99
2018-02-14T00:27:05.760Z,99.99
2018-02-14T00:28:05.767Z,99.99
2018-02-14T00:29:05.527Z,99.99
2018-02-14T00:30:05.547Z,99.99
2018-02-14T00:31:05.799Z,99.99
2018-02-14T00:32:05.564Z,99.99
2018-02-14T00:33:05.832Z,99.99
2018-02-14T00:34:20.503Z,99.99
2018-02-14T00:35:05.600Z,99.99
2018-02-14T00:36:05.615Z,99.99
2018-02-14T00:37:05.614Z,99.99
2018-02-14T00:39:05.650Z,99.99
2018-02-14T00:40:05.898Z,99.99
2018-02-14T00:41:05.661Z,99.99
2018-02-14T00:42:05.664Z,99.99
2018-02-14T00:43:05.930Z,99.99
2018-02-14T00:44:05.953Z,99.99
2018-02-14T00:45:05.966Z,99.99
2018-02-14T00:46:05.721Z,99.99
2018-02-14T00:47:05.726Z,99.99
2018-02-14T00:48:05.743Z,99.99
2018-02-14T00:49:05.751Z,99.99
2018-02-14T00:50:20.683Z,99.99
2018-02-14T00:51:05.777Z,99.99
2018-02-14T00:52:05.785Z,99.99
2018-02-14T00:53:05.793Z,99.99
2018-02-14T00:54:06.060Z,99.99
2018-02-14T00:55:06.064Z,99.99
2018-02-14T00:56:05.834Z,99.99
2018-02-14T00:57:06.094Z,99.99
2018-02-14T00:59:06.108Z,99.99
2018-02-14T01:00:06.123Z,99.99
2018-02-14T01:01:06.146Z,99.99
2018-02-14T01:02:05.895Z,99.99
2018-02-14T01:03:06.159Z,99.99
2018-02-14T01:04:05.925Z,99.99
2018-02-14T01:05:06.181Z,99.99
2018-02-14T01:06:20.862Z,99.99
2018-02-14T01:07:05.958Z,99.99
2018-02-14T01:09:05.969Z,99.99
2018-02-14T01:10:05.982Z,99.99
2018-02-14T01:11:06.236Z,99.99
2018-02-14T01:12:06.258Z,99.99
2018-02-14T01:13:06.012Z,99.99
2018-02-14T01:14:06.285Z,99.99
2018-02-14T01:16:06.053Z,99.99
2018-02-14T01:17:06.063Z,99.99
2018-02-14T01:18:06.310Z,99.99
2018-02-14T01:19:06.083Z,99.99
2018-02-14T01:20:06.342Z,99.99
2018-02-14T01:21:06.374Z,99.99
2018-02-14T01:22:21.042Z,99.99
2018-02-14T01:23:06.379Z,99.99
2018-02-14T01:24:06.384Z,99.99
2018-02-14T01:25:06.402Z,99.99
2018-02-14T01:26:06.417Z,99.99
2018-02-14T01:27:06.179Z,99.99
2018-02-14T01:28:06.424Z,99.99
2018-02-14T01:29:06.450Z,99.99
2018-02-14T01:30:06.454Z,99.99
2018-02-14T01:31:06.494Z,99.99
2018-02-14T01:32:06.473Z,99.99
2018-02-14T01:33:06.494Z,99.99
2018-02-14T01:34:06.512Z,99.99
2018-02-14T01:35:06.518Z,99.99
2018-02-14T01:36:06.523Z,99.99
2018-02-14T01:37:21.202Z,99.99
2018-02-14T01:38:06.571Z,99.99
2018-02-14T01:39:06.564Z,99.99
2018-02-14T01:40:06.570Z,99.99
2018-02-14T01:41:06.684Z,99.99
2018-02-14T01:42:06.596Z,99.99
2018-02-14T01:43:06.616Z,99.99
2018-02-14T01:44:06.606Z,99.99
2018-02-14T01:45:06.625Z,99.99
2018-02-14T01:46:06.380Z,99.99
2018-02-14T01:47:06.639Z,99.99
2018-02-14T01:48:06.410Z,99.99
2018-02-14T01:49:06.408Z,99.99
2018-02-14T01:50:06.684Z,99.99
2018-02-14T01:51:06.693Z,99.99
2018-02-14T01:52:06.699Z,99.99
2018-02-14T01:53:06.712Z,99.99
2018-02-14T01:54:06.717Z,99.99
2018-02-14T01:55:06.746Z,99.99
2018-02-14T01:56:06.484Z,99.99
2018-02-14T01:58:06.773Z,99.99
2018-02-14T01:59:06.790Z,99.99
2018-02-14T02:00:06.529Z,99.99
2018-02-14T02:01:06.820Z,99.99
2018-02-14T02:02:06.814Z,99.99
2018-02-14T02:03:06.835Z,99.99
2018-02-14T02:04:06.831Z,99.99
2018-02-14T02:05:06.840Z,99.99
2018-02-14T02:06:06.874Z,99.99
2018-02-14T02:07:06.879Z,99.99
2018-02-14T02:08:06.628Z,99.99
2018-02-14T02:09:21.556Z,99.99
2018-02-14T02:10:06.891Z,99.99
2018-02-14T02:11:06.920Z,99.99
2018-02-14T02:12:06.657Z,99.99
2018-02-14T02:13:06.925Z,99.99
2018-02-14T02:14:06.958Z,99.99
2018-02-14T02:15:06.957Z,99.99
2018-02-14T02:16:06.713Z,99.99
2018-02-14T02:18:06.974Z,99.99
2018-02-14T02:19:07.018Z,99.99
2018-02-14T02:20:06.751Z,99.99
2018-02-14T02:21:06.773Z,99.99
2018-02-14T02:22:06.781Z,99.99
2018-02-14T02:23:07.041Z,99.99
2018-02-14T02:25:21.725Z,99.99
2018-02-14T02:26:07.078Z,99.99
2018-02-14T02:27:07.084Z,99.99
2018-02-14T02:28:07.080Z,99.99
2018-02-14T02:29:07.112Z,99.99
2018-02-14T02:30:07.124Z,99.99
2018-02-14T02:31:06.873Z,99.99
2018-02-14T02:32:07.146Z,99.99
2018-02-14T02:33:07.157Z,99.99
2018-02-14T02:34:07.154Z,99.99
2018-02-14T02:35:07.153Z,99.99
2018-02-14T02:36:07.197Z,99.99
2018-02-14T02:37:06.933Z,99.99
2018-02-14T02:38:07.203Z,99.99
2018-02-14T02:39:07.232Z,99.99
2018-02-14T02:40:07.221Z,99.99
2018-02-14T02:41:21.903Z,99.99
2018-02-14T02:42:07.271Z,99.99
2018-02-14T02:43:07.270Z,99.99
2018-02-14T02:44:07.270Z,99.99
2018-02-14T02:45:07.275Z,99.99
2018-02-14T02:46:07.302Z,99.99
2018-02-14T02:47:07.304Z,99.99
2018-02-14T02:48:07.316Z,99.99
2018-02-14T02:49:07.314Z,99.99
2018-02-14T02:50:07.334Z,99.99
2018-02-14T02:51:07.350Z,99.99
2018-02-14T02:52:07.365Z,99.99
2018-02-14T02:53:07.112Z,99.99
2018-02-14T02:54:07.117Z,99.99
2018-02-14T02:55:07.391Z,99.99
2018-02-14T02:56:07.381Z,99.99
2018-02-14T02:57:22.078Z,99.99
2018-02-14T02:58:07.427Z,99.99
2018-02-14T03:00:07.437Z,99.99
2018-02-14T03:01:07.195Z,99.99
2018-02-14T03:02:07.470Z,99.99
2018-02-14T03:03:07.479Z,99.99
2018-02-14T03:04:07.486Z,99.99
2018-02-14T03:05:07.484Z,99.99
2018-02-14T03:06:07.499Z,99.99
2018-02-14T03:07:07.505Z,99.99
2018-02-14T03:08:07.534Z,99.99
2018-02-14T03:09:07.533Z,99.99
2018-02-14T03:10:07.547Z,99.99
2018-02-14T03:11:07.593Z,99.99
2018-02-14T03:12:22.240Z,99.99
2018-02-14T03:13:07.327Z,99.99
2018-02-14T03:14:07.339Z,99.99
2018-02-14T03:15:07.595Z,99.99
2018-02-14T03:17:07.626Z,99.99
2018-02-14T03:18:07.378Z,99.99
2018-02-14T03:19:07.651Z,99.99
2018-02-14T03:20:07.400Z,99.99
2018-02-14T03:21:07.414Z,99.99
2018-02-14T03:22:07.675Z,99.99
2018-02-14T03:23:07.690Z,99.99
2018-02-14T03:24:07.799Z,99.99
2018-02-14T03:25:07.707Z,99.99
2018-02-14T03:26:07.465Z,99.99
2018-02-14T03:27:07.732Z,99.99
2018-02-14T03:28:07.486Z,99.99
2018-02-14T03:29:07.494Z,99.99
2018-02-14T03:30:07.772Z,99.99
2018-02-14T03:31:07.773Z,99.99
2018-02-14T03:32:07.527Z,99.99
2018-02-14T03:33:07.801Z,99.99
2018-02-14T03:34:07.555Z,99.99
2018-02-14T03:35:07.822Z,99.99
2018-02-14T03:36:07.816Z,99.99
2018-02-14T03:37:07.848Z,99.99
2018-02-14T03:38:07.858Z,99.99
2018-02-14T03:39:07.855Z,99.99
2018-02-14T03:40:07.870Z,99.99
2018-02-14T03:41:07.870Z,99.99
2018-02-14T03:42:07.636Z,99.99
2018-02-14T03:43:07.897Z,99.99
2018-02-14T03:44:22.575Z,99.99
2018-02-14T03:45:07.924Z,99.99
2018-02-14T03:46:07.667Z,99.99
2018-02-14T03:47:07.685Z,99.99
2018-02-14T03:50:07.972Z,99.99
2018-02-14T03:51:07.727Z,99.99
2018-02-14T03:52:07.730Z,99.99
2018-02-14T03:53:08.001Z,99.99
2018-02-14T03:54:08.023Z,99.99
2018-02-14T03:55:07.782Z,99.99
2018-02-14T03:56:08.039Z,99.99
2018-02-14T03:57:07.789Z,99.99
2018-02-14T03:58:08.064Z,99.99
2018-02-14T03:59:07.807Z,99.99
2018-02-14T04:00:22.753Z,99.99
2018-02-14T04:01:07.840Z,99.99
2018-02-14T04:02:08.110Z,99.99
2018-02-14T04:03:07.852Z,99.99
2018-02-14T04:05:08.151Z,99.99
2018-02-14T04:06:08.148Z,99.99
2018-02-14T04:07:07.894Z,99.99
2018-02-14T04:08:08.170Z,99.99
2018-02-14T04:09:07.921Z,99.99
2018-02-14T04:10:08.183Z,99.99
2018-02-14T04:11:07.941Z,99.99
2018-02-14T04:12:08.206Z,99.99
2018-02-14T04:13:07.963Z,99.99
2018-02-14T04:16:22.915Z,99.99
2018-02-14T04:17:08.270Z,99.99
2018-02-14T04:18:08.021Z,99.99
2018-02-14T04:19:08.020Z,99.99
2018-02-14T04:20:08.280Z,99.99
2018-02-14T04:21:08.298Z,99.99
2018-02-14T04:22:08.056Z,99.99
2018-02-14T04:23:08.334Z,99.99
2018-02-14T04:24:08.329Z,99.99
2018-02-14T04:25:08.089Z,99.99
2018-02-14T04:26:08.341Z,99.99
2018-02-14T04:27:08.134Z,99.99
2018-02-14T04:30:08.406Z,99.99
2018-02-14T04:32:23.086Z,99.99
2018-02-14T04:33:08.418Z,99.99
2018-02-14T04:34:08.182Z,99.99
2018-02-14T04:35:08.455Z,99.99
2018-02-14T04:36:08.455Z,99.99
2018-02-14T04:37:08.480Z,99.99
2018-02-14T04:38:08.471Z,99.99
2018-02-14T04:39:08.232Z,99.99
2018-02-14T04:40:08.243Z,99.99
2018-02-14T04:41:08.255Z,99.99
2018-02-14T04:42:08.515Z,99.99
2018-02-14T04:43:08.533Z,99.99
2018-02-14T04:44:08.276Z,99.99
2018-02-14T04:45:08.298Z,99.99
2018-02-14T04:46:08.579Z,99.99
2018-02-14T04:47:23.239Z,99.99
2018-02-14T04:50:08.606Z,99.99
2018-02-14T04:51:08.367Z,99.99
2018-02-14T04:52:08.632Z,99.99
2018-02-14T04:53:08.630Z,99.99
2018-02-14T04:54:08.394Z,99.99
2018-02-14T04:55:08.400Z,99.99
2018-02-14T04:56:08.669Z,99.99
2018-02-14T04:57:08.419Z,99.99
2018-02-14T04:58:08.437Z,99.99
2018-02-14T04:59:08.441Z,99.99
2018-02-14T05:00:08.702Z,99.99
2018-02-14T05:01:08.464Z,99.99
2018-02-14T05:02:08.729Z,99.99
2018-02-14T05:03:08.751Z,99.99
2018-02-14T05:04:08.494Z,99.99
2018-02-14T05:05:08.496Z,99.99
2018-02-14T05:06:08.773Z,99.99
2018-02-14T05:07:08.532Z,99.99
2018-02-14T05:08:08.792Z,99.99
2018-02-14T05:09:08.547Z,99.99
2018-02-14T05:10:08.559Z,99.99
2018-02-14T05:11:08.827Z,99.99
2018-02-14T05:12:08.575Z,99.99
2018-02-14T05:13:08.842Z,99.99
2018-02-14T05:14:08.857Z,99.99
2018-02-14T05:15:08.614Z,99.99
2018-02-14T05:16:08.622Z,99.99
2018-02-14T05:17:08.899Z,99.99
2018-02-14T05:18:08.640Z,99.99
2018-02-14T05:19:23.580Z,99.99
2018-02-14T05:20:08.657Z,99.99
2018-02-14T05:21:08.915Z,99.99
2018-02-14T05:22:08.946Z,99.99
2018-02-14T05:23:08.944Z,99.99
2018-02-14T05:25:08.961Z,99.99
2018-02-14T05:26:09.002Z,99.99
2018-02-14T05:27:09.062Z,99.99
2018-02-14T05:28:08.748Z,99.99
2018-02-14T05:29:08.764Z,99.99
2018-02-14T05:30:08.766Z,99.99
2018-02-14T05:31:09.029Z,99.99
2018-02-14T05:32:08.793Z,99.99
2018-02-14T05:33:09.060Z,99.99
2018-02-14T05:34:08.811Z,99.99
2018-02-14T05:35:23.746Z,99.99
2018-02-14T05:36:09.091Z,99.99
2018-02-14T05:37:09.098Z,99.99
2018-02-14T05:38:08.855Z,99.99
2018-02-14T05:39:08.856Z,99.99
2018-02-14T05:40:09.128Z,99.99
2018-02-14T05:41:08.884Z,99.99
2018-02-14T05:42:09.147Z,99.99
2018-02-14T05:43:09.149Z,99.99
2018-02-14T05:44:09.159Z,99.99
2018-02-14T05:45:09.191Z,99.99
2018-02-14T05:46:09.200Z,99.99
2018-02-14T05:47:09.208Z,99.99
2018-02-14T05:49:09.221Z,99.99
2018-02-14T05:50:09.240Z,99.99
2018-02-14T05:51:23.902Z,99.99
2018-02-14T05:52:09.250Z,99.99
2018-02-14T05:53:09.273Z,99.99
2018-02-14T05:54:09.271Z,99.99
2018-02-14T05:55:09.281Z,99.99
2018-02-14T05:56:09.295Z,99.99
2018-02-14T05:57:09.289Z,99.99
2018-02-14T05:58:09.309Z,99.99
2018-02-14T05:59:09.066Z,99.99
2018-02-14T06:00:09.072Z,99.99
2018-02-14T06:01:09.333Z,99.99
2018-02-14T06:02:09.099Z,99.99
2018-02-14T06:03:09.359Z,99.99
2018-02-14T06:05:09.387Z,99.99
2018-02-14T06:06:09.391Z,99.99
2018-02-14T06:07:24.071Z,99.99
2018-02-14T06:08:09.420Z,99.99
2018-02-14T06:10:09.426Z,99.99
2018-02-14T06:11:09.445Z,99.99
2018-02-14T06:13:09.468Z,99.99
2018-02-14T06:14:09.221Z,99.99
2018-02-14T06:15:09.493Z,99.99
2018-02-14T06:16:09.246Z,99.99
2018-02-14T06:17:09.519Z,99.99
2018-02-14T06:18:09.259Z,99.99
2018-02-14T06:19:09.537Z,99.99
2018-02-14T06:20:09.541Z,99.99
2018-02-14T06:21:09.557Z,99.99
2018-02-14T06:22:24.231Z,99.99
2018-02-14T06:23:09.579Z,99.99
2018-02-14T06:24:09.576Z,99.99
2018-02-14T06:25:09.596Z,99.99
2018-02-14T06:26:09.349Z,99.99
2018-02-14T06:27:09.603Z,99.99
2018-02-14T06:28:09.636Z,99.99
2018-02-14T06:29:09.616Z,99.99
2018-02-14T06:30:09.643Z,99.99
2018-02-14T06:31:09.683Z,99.99
2018-02-14T06:32:09.656Z,99.99
2018-02-14T06:33:09.684Z,99.99
2018-02-14T06:34:09.689Z,99.99
2018-02-14T06:35:09.434Z,99.99
2018-02-14T06:36:09.694Z,99.99
2018-02-14T06:37:09.711Z,99.99
2018-02-14T06:38:09.465Z,99.99
2018-02-14T06:39:09.480Z,99.99
2018-02-14T06:40:09.729Z,99.99
2018-02-14T06:41:09.759Z,99.99
2018-02-14T06:42:09.504Z,99.99
2018-02-14T06:44:09.526Z,99.99
2018-02-14T06:45:09.794Z,99.99
2018-02-14T06:46:09.803Z,99.99
2018-02-14T06:47:09.821Z,99.99
2018-02-14T06:48:09.825Z,99.99
2018-02-14T06:49:09.839Z,99.99
2018-02-14T06:50:09.843Z,99.99
2018-02-14T06:51:09.866Z,99.99
2018-02-14T06:52:09.861Z,99.99
2018-02-14T06:53:09.880Z,99.99
2018-02-14T06:54:24.561Z,99.99
2018-02-14T06:55:09.900Z,99.99
2018-02-14T06:56:09.929Z,99.99
2018-02-14T06:57:09.662Z,99.99
2018-02-14T06:58:09.932Z,99.99
2018-02-14T06:59:09.948Z,99.99
2018-02-14T07:00:09.697Z,99.99
2018-02-14T07:01:09.964Z,99.99
2018-02-14T07:02:09.720Z,99.99
2018-02-14T07:03:09.984Z,99.99
2018-02-14T07:04:09.987Z,99.99
2018-02-14T07:05:09.749Z,99.99
2018-02-14T07:07:09.768Z,99.99
2018-02-14T07:08:10.047Z,99.99
2018-02-14T07:09:09.792Z,99.99
2018-02-14T07:10:24.732Z,99.99
2018-02-14T07:11:10.061Z,99.99
2018-02-14T07:12:10.081Z,99.99
2018-02-14T07:13:10.090Z,99.99
2018-02-14T07:14:10.105Z,99.99
2018-02-14T07:15:09.863Z,99.99
2018-02-14T07:16:09.875Z,99.99
2018-02-14T07:17:10.128Z,99.99
2018-02-14T07:18:10.145Z,99.99
2018-02-14T07:19:10.153Z,99.99
2018-02-14T07:20:10.177Z,99.99
2018-02-14T07:21:10.173Z,99.99
2018-02-14T07:22:10.189Z,99.99
2018-02-14T07:24:10.206Z,99.99
2018-02-14T07:25:10.221Z,99.99
2018-02-14T07:26:24.909Z,99.99
2018-02-14T07:27:10.246Z,99.99
2018-02-14T07:28:10.257Z,99.99
2018-02-14T07:29:10.359Z,99.99
2018-02-14T07:30:10.279Z,99.99
2018-02-14T07:31:10.287Z,99.99
2018-02-14T07:32:10.297Z,99.99
2018-02-14T07:33:10.321Z,99.99
2018-02-14T07:34:10.078Z,99.99
2018-02-14T07:35:10.333Z,99.99
2018-02-14T07:36:10.109Z,99.99
2018-02-14T07:37:10.379Z,99.99
2018-02-14T07:38:10.382Z,99.99
2018-02-14T07:39:10.401Z,99.99
2018-02-14T07:40:10.416Z,99.99
2018-02-14T07:41:10.439Z,99.99
2018-02-14T07:42:25.109Z,99.99
2018-02-14T07:43:10.448Z,99.99
2018-02-14T07:45:10.238Z,99.99
2018-02-14T07:46:10.240Z,99.99
2018-02-14T07:47:10.518Z,99.99
2018-02-14T07:48:10.265Z,99.99
2018-02-14T07:49:10.549Z,99.99
2018-02-14T07:50:10.569Z,99.99
2018-02-14T07:51:10.577Z,99.99
2018-02-14T07:52:10.586Z,99.99
2018-02-14T07:54:10.602Z,99.99
2018-02-14T07:55:10.637Z,99.99
2018-02-14T07:56:10.644Z,99.99
2018-02-14T07:57:25.325Z,99.99
2018-02-14T07:58:10.671Z,99.99
2018-02-14T07:59:10.687Z,99.99
2018-02-14T08:00:10.449Z,99.99
2018-02-14T08:01:10.473Z,99.99
2018-02-14T08:02:10.718Z,99.99
2018-02-14T08:03:10.493Z,99.99
2018-02-14T08:04:10.762Z,99.99
2018-02-14T08:05:10.782Z,99.99
2018-02-14T08:06:10.789Z,99.99
2018-02-14T08:07:10.814Z,99.99
2018-02-14T08:08:10.810Z,99.99
2018-02-14T08:09:10.578Z,99.99
2018-02-14T08:10:10.858Z,99.99
2018-02-14T08:11:10.852Z,99.99
2018-02-14T08:12:10.886Z,99.99
2018-02-14T08:13:10.892Z,99.99
2018-02-14T08:14:10.901Z,99.99
2018-02-14T08:15:10.924Z,99.99
2018-02-14T08:16:10.671Z,99.99
2018-02-14T08:17:10.956Z,99.99
2018-02-14T08:18:10.954Z,99.99
2018-02-14T08:19:10.979Z,99.99
2018-02-14T08:20:11.007Z,99.99
2018-02-14T08:21:11.020Z,99.99
2018-02-14T08:22:11.024Z,99.99
2018-02-14T08:23:11.043Z,99.99
2018-02-14T08:24:11.059Z,99.99
2018-02-14T08:25:10.820Z,99.99
2018-02-14T08:26:11.113Z,99.99
2018-02-14T08:27:11.101Z,99.99
2018-02-14T08:29:25.794Z,99.99
2018-02-14T08:30:10.893Z,99.99
2018-02-14T08:31:11.152Z,99.99
2018-02-14T08:32:10.916Z,99.99
2018-02-14T08:34:11.201Z,99.99
2018-02-14T08:35:11.215Z,99.99
2018-02-14T08:36:10.985Z,99.99
2018-02-14T08:37:10.995Z,99.99
2018-02-14T08:38:11.013Z,99.99
2018-02-14T08:39:11.284Z,99.99
2018-02-14T08:40:11.280Z,99.99
2018-02-14T08:41:11.045Z,99.99
2018-02-14T08:42:11.309Z,99.99
2018-02-14T08:43:11.364Z,99.99
2018-02-14T08:44:11.345Z,99.99
2018-02-14T08:45:26.039Z,99.99
2018-02-14T08:46:11.386Z,99.99
2018-02-14T08:47:11.389Z,99.99
2018-02-14T08:48:11.401Z,99.99
2018-02-14T08:49:11.176Z,99.99
2018-02-14T08:50:11.437Z,99.99
2018-02-14T08:52:11.478Z,99.99
2018-02-14T08:53:11.489Z,99.99
2018-02-14T08:54:11.509Z,99.99
2018-02-14T08:55:11.503Z,99.99
2018-02-14T08:56:11.522Z,99.99
2018-02-14T08:57:11.537Z,99.99
2018-02-14T08:58:11.559Z,99.99
2018-02-14T08:59:11.579Z,99.99
2018-02-14T09:00:11.581Z,99.99
2018-02-14T09:01:26.277Z,99.99
2018-02-14T09:02:11.609Z,99.99
2018-02-14T09:03:11.637Z,99.99
2018-02-14T09:04:11.652Z,99.99
2018-02-14T09:05:11.655Z,99.99
2018-02-14T09:06:11.681Z,99.99
2018-02-14T09:07:11.703Z,99.99
2018-02-14T09:08:11.713Z,99.99
2018-02-14T09:09:11.730Z,99.99
2018-02-14T09:10:11.745Z,99.99
2018-02-14T09:11:11.758Z,99.99
2018-02-14T09:12:11.782Z,99.99
2018-02-14T09:13:11.541Z,99.99
2018-02-14T09:14:11.816Z,99.99
2018-02-14T09:15:11.817Z,99.99
2018-02-14T09:16:11.834Z,99.99
2018-02-14T09:17:26.515Z,99.99
2018-02-14T09:18:11.864Z,99.99
2018-02-14T09:19:11.618Z,99.99
2018-02-14T09:20:11.896Z,99.99
2018-02-14T09:21:11.916Z,99.99
2018-02-14T09:22:11.928Z,99.99
2018-02-14T09:23:11.946Z,99.99
2018-02-14T09:24:11.958Z,99.99
2018-02-14T09:25:11.968Z,99.99
2018-02-14T09:26:11.987Z,99.99
2018-02-14T09:27:12.006Z,99.99
2018-02-14T09:28:12.027Z,99.99
2018-02-14T09:29:12.048Z,99.99
2018-02-14T09:30:12.056Z,99.99
2018-02-14T09:31:12.058Z,99.99
2018-02-14T09:32:26.755Z,99.99
2018-02-14T09:34:11.863Z,99.99
2018-02-14T09:35:11.880Z,99.99
2018-02-14T09:36:12.151Z,99.99
2018-02-14T09:37:12.168Z,99.99
2018-02-14T09:38:12.172Z,99.99
2018-02-14T09:39:12.210Z,99.99
2018-02-14T09:40:11.953Z,99.99
2018-02-14T09:41:12.224Z,99.99
2018-02-14T09:42:12.253Z,99.99
2018-02-14T09:43:12.259Z,99.99
2018-02-14T09:44:12.267Z,99.99
2018-02-14T09:45:12.286Z,99.99
2018-02-14T09:46:12.300Z,99.99
2018-02-14T09:47:12.077Z,99.99
2018-02-14T09:48:12.092Z,99.99
2018-02-14T09:49:12.349Z,99.99
2018-02-14T09:50:12.104Z,99.99
2018-02-14T09:51:12.389Z,99.99
2018-02-14T09:52:12.408Z,99.99
2018-02-14T09:53:12.422Z,99.99
2018-02-14T09:54:12.447Z,99.99
2018-02-14T09:55:12.199Z,99.99
2018-02-14T09:56:12.458Z,99.99
2018-02-14T09:57:12.473Z,99.99
2018-02-14T09:58:12.503Z,99.99
2018-02-14T09:59:12.532Z,99.99
2018-02-14T10:00:12.645Z,99.99
2018-02-14T10:01:12.546Z,99.99
2018-02-14T10:02:12.306Z,99.99
2018-02-14T10:03:12.579Z,99.99
2018-02-14T10:04:27.270Z,99.99
2018-02-14T10:05:12.612Z,99.99
2018-02-14T10:06:12.627Z,99.9
2018-02-14T10:07:12.655Z,99.99
2018-02-14T10:08:12.654Z,99.33
2018-02-14T10:09:12.412Z,99.62
2018-02-14T10:10:12.705Z,98.72
2018-02-14T10:11:12.752Z,99.2
2018-02-14T10:12:12.472Z,98.25
2018-02-14T10:13:12.740Z,98.25
2018-02-14T10:14:12.754Z,97.87
2018-02-14T10:15:12.772Z,97.97
2018-02-14T10:18:12.674Z,96.55
2018-02-14T10:19:12.843Z,96.64
2018-02-14T10:20:27.526Z,97.11
2018-02-14T10:21:12.871Z,97.02
2018-02-14T10:22:12.882Z,97.21
2018-02-14T10:23:12.932Z,96.26
2018-02-14T10:24:12.935Z,95.69
2018-02-14T10:25:12.686Z,95.22
2018-02-14T10:26:12.702Z,95.5
2018-02-14T10:27:12.974Z,95.31
2018-02-14T10:28:12.728Z,95.5
2018-02-14T10:29:12.751Z,94.93
2018-02-14T10:30:13.017Z,94.74
2018-02-14T10:31:13.034Z,94.93
2018-02-14T10:33:12.813Z,94.56
2018-02-14T10:34:12.836Z,94.46
2018-02-14T10:35:13.102Z,94.56
2018-02-14T10:36:27.788Z,94.27
2018-02-14T10:37:13.136Z,94.46
2018-02-14T10:38:13.137Z,94.27
2018-02-14T10:39:13.175Z,94.08
2018-02-14T10:40:12.927Z,94.27
2018-02-14T10:41:13.188Z,94.46
2018-02-14T10:42:13.223Z,94.56
2018-02-14T10:43:13.223Z,94.74
2018-02-14T10:44:13.260Z,94.08
2018-02-14T10:45:13.278Z,94.08
2018-02-14T10:46:13.300Z,94.37
2018-02-14T10:47:13.295Z,94.08
2018-02-14T10:48:13.308Z,93.32
2018-02-14T10:49:13.321Z,93.7
2018-02-14T10:50:13.353Z,93.51
2018-02-14T10:51:13.358Z,93.7
2018-02-14T10:52:28.051Z,93.61
2018-02-14T10:54:13.414Z,93.61
2018-02-14T10:55:13.414Z,92.94
2018-02-14T10:56:13.432Z,92.94
2018-02-14T10:57:13.450Z,92.28
2018-02-14T10:58:13.462Z,93.13
2018-02-14T10:59:13.227Z,93.7
2018-02-14T11:00:13.501Z,93.51
2018-02-14T11:01:13.289Z,93.13
2018-02-14T11:02:13.533Z,93.42
2018-02-14T11:03:13.552Z,93.18
2018-02-14T11:04:13.563Z,93.08
2018-02-14T11:05:13.582Z,93.18
2018-02-14T11:06:13.599Z,92.42
2018-02-14T11:07:28.284Z,92.71
2018-02-14T11:08:13.626Z,91.95
2018-02-14T11:09:13.397Z,91.95
2018-02-14T11:10:13.670Z,91.57
2018-02-14T11:12:13.440Z,92.14
2018-02-14T11:13:13.708Z,91.95
2018-02-14T11:14:13.727Z,91.76
2018-02-14T11:16:13.759Z,92.23
2018-02-14T11:17:13.527Z,92.23
2018-02-14T11:18:13.799Z,91.76
2018-02-14T11:19:13.814Z,91.47
2018-02-14T11:20:13.834Z,91.09
2018-02-14T11:21:13.574Z,91.09
2018-02-14T11:22:13.608Z,91.66
2018-02-14T11:23:13.871Z,91.09
2018-02-14T11:24:13.886Z,91.38
2018-02-14T11:26:13.910Z,91.19
2018-02-14T11:27:13.942Z,90.62
2018-02-14T11:29:13.714Z,90.05
2018-02-14T11:30:13.976Z,90.62
2018-02-14T11:31:14.005Z,90.05
2018-02-14T11:33:14.049Z,89.01
2018-02-14T11:34:14.050Z,89.01
2018-02-14T11:35:14.067Z,89.01
2018-02-14T11:36:14.069Z,88.92
2018-02-14T11:37:14.108Z,88.96
2018-02-14T11:38:14.119Z,88.96
2018-02-14T11:39:28.801Z,88.87
2018-02-14T11:40:14.159Z,87.73
2018-02-14T11:41:14.173Z,86.97
2018-02-14T11:42:14.173Z,87.06
2018-02-14T11:43:14.205Z,86.78
2018-02-14T11:44:14.201Z,87.16
2018-02-14T11:45:14.226Z,87.45
2018-02-14T11:46:14.241Z,87.92
2018-02-14T11:47:14.263Z,87.16
2018-02-14T11:48:14.282Z,86.02
2018-02-14T11:49:14.286Z,85.88
2018-02-14T11:50:14.047Z,86.64
2018-02-14T11:52:14.347Z,86.45
2018-02-14T11:53:14.352Z,86.07
2018-02-14T11:54:14.367Z,86.16
2018-02-14T11:55:29.060Z,86.16
2018-02-14T11:56:14.415Z,86.26
2018-02-14T11:57:14.421Z,86.35
2018-02-14T11:58:14.188Z,87.3
2018-02-14T11:59:14.468Z,86.45
2018-02-14T12:00:14.474Z,85.78
2018-02-14T12:01:14.495Z,85.88
2018-02-14T12:02:14.510Z,85.69
2018-02-14T12:03:14.517Z,85.69
2018-02-14T12:05:14.562Z,85.97
2018-02-14T12:06:14.315Z,86.16
2018-02-14T12:07:14.583Z,85.69
2018-02-14T12:08:14.612Z,86.07
2018-02-14T12:09:14.617Z,86.35
2018-02-14T12:10:14.620Z,86.26
2018-02-14T12:11:29.323Z,85.6
2018-02-14T12:12:14.686Z,85.88
2018-02-14T12:13:14.690Z,85.08
2018-02-14T12:14:14.695Z,85.36
2018-02-14T12:15:14.712Z,85.65
2018-02-14T12:16:14.739Z,85.6
2018-02-14T12:17:14.759Z,85.97
2018-02-14T12:18:14.765Z,86.31
2018-02-14T12:19:14.528Z,86.35
2018-02-14T12:20:14.798Z,87.35
2018-02-14T12:21:14.559Z,86.55
2018-02-14T12:22:14.823Z,86.6
2018-02-14T12:23:14.849Z,86.12
2018-02-14T12:24:14.867Z,86.22
2018-02-14T12:25:14.867Z,86.12
2018-02-14T12:26:14.898Z,86.12
2018-02-14T12:27:29.573Z,86.41
2018-02-14T12:28:14.931Z,86.41
2018-02-14T12:29:14.939Z,86.22
2018-02-14T12:30:14.687Z,86.41
2018-02-14T12:32:14.988Z,86.69
2018-02-14T12:33:14.739Z,86.31
2018-02-14T12:34:15.023Z,86.5
2018-02-14T12:35:15.033Z,86.6
2018-02-14T12:36:14.795Z,86.69
2018-02-14T12:37:14.813Z,86.6
2018-02-14T12:38:14.825Z,86.41
2018-02-14T12:39:15.093Z,87.26
2018-02-14T12:40:15.114Z,87.07
2018-02-14T12:41:14.881Z,87.07
2018-02-14T12:42:29.803Z,86.79
2018-02-14T12:43:14.913Z,87.16
2018-02-14T12:44:14.918Z,87.07
2018-02-14T12:46:14.952Z,87.35
2018-02-14T12:47:15.213Z,87.07
2018-02-14T12:48:15.231Z,86.98
2018-02-14T12:49:15.238Z,87.26
2018-02-14T12:50:15.258Z,86.41
2018-02-14T12:51:15.277Z,86.5
2018-02-14T12:52:15.282Z,87.16
2018-02-14T12:53:15.315Z,86.88
2018-02-14T12:54:15.325Z,87.07
2018-02-14T12:55:15.337Z,86.88
2018-02-14T12:57:15.380Z,86.98
2018-02-14T12:58:15.385Z,87.26
2018-02-14T12:59:15.398Z,86.22
2018-02-14T13:00:15.422Z,86.41
2018-02-14T13:01:15.170Z,86.5
2018-02-14T13:02:15.445Z,86.6
2018-02-14T13:04:15.479Z,86.41
2018-02-14T13:05:15.248Z,86.31
2018-02-14T13:06:15.511Z,86.41
2018-02-14T13:07:15.266Z,86.31
2018-02-14T13:08:15.548Z,85.65
2018-02-14T13:09:15.553Z,85.93
2018-02-14T13:10:15.317Z,86.03
2018-02-14T13:11:15.333Z,85.65
2018-02-14T13:12:15.345Z,85.46
2018-02-14T13:13:15.620Z,86.03
2018-02-14T13:14:30.298Z,85.93
2018-02-14T13:15:15.645Z,85.74
2018-02-14T13:16:15.671Z,84.99
2018-02-14T13:17:15.674Z,85.08
2018-02-14T13:18:15.445Z,85.74
2018-02-14T13:19:15.691Z,85.27
2018-02-14T13:20:15.721Z,85.46
2018-02-14T13:21:15.734Z,84.51
2018-02-14T13:22:15.496Z,84.7
2018-02-14T13:23:15.768Z,84.8
2018-02-14T13:24:15.527Z,84.7
2018-02-14T13:25:15.539Z,84.89
2018-02-14T13:27:15.840Z,85.08
2018-02-14T13:28:15.839Z,84.13
2018-02-14T13:29:15.841Z,83.56
2018-02-14T13:30:30.541Z,84.04
2018-02-14T13:31:15.886Z,84.04
2018-02-14T13:32:15.896Z,84.13
2018-02-14T13:33:15.684Z,84.61
2018-02-14T13:34:15.935Z,84.04
2018-02-14T13:35:15.940Z,84.8
2018-02-14T13:36:15.966Z,84.32
2018-02-14T13:37:15.970Z,83.94
2018-02-14T13:38:15.996Z,84.42
2018-02-14T13:39:16.007Z,84.13
2018-02-14T13:40:16.017Z,84.32
2018-02-14T13:41:16.039Z,84.13
2018-02-14T13:42:16.069Z,84.32
2018-02-14T13:43:16.070Z,84.89
2018-02-14T13:44:16.091Z,84.99